Time;durP1;ratioP1;P1;durP2;ratioP2;P2;SDS_P1;SDS_P2;PMS_P1;PMS_P2;Temp;Humidity;BMP_temperature;BMP_pressure;BME280_temperature;BME280_humidity;BME280_pressure;Samples;Min_cycle;Max_cycle;Signal;HPM_P1;HPM_P2
2021/05/19 00:02:54;;;;;;;2.33;0.68;;;;;;;9.57;100.00;101913.97;5071664;28;20043;-63
2021/05/19 00:05:20;;;;;;;5.57;0.93;;;;;;;9.59;100.00;101916.47;5071136;28;20032;-63
2021/05/19 00:07:46;;;;;;;4.32;1.02;;;;;;;9.59;100.00;101917.31;5071270;28;20482;-63
2021/05/19 00:10:11;;;;;;;5.55;1.52;;;;;;;9.59;100.00;101916.47;5069719;28;20067;-63
2021/05/19 00:12:37;;;;;;;2.75;0.90;;;;;;;9.61;100.00;101914.38;5070897;28;20427;-62
2021/05/19 00:15:05;;;;;;;1.83;0.65;;;;;;;9.62;100.00;101916.88;5071309;28;20043;-63
2021/05/19 00:17:42;;;;;;;5.68;1.13;;;;;;;9.62;100.00;101911.44;5071216;28;20466;-63
2021/05/19 00:20:09;;;;;;;2.20;1.13;;;;;;;9.65;100.00;101915.63;5071263;28;20036;-63
2021/05/19 00:22:34;;;;;;;3.53;0.80;;;;;;;9.65;100.00;101912.91;5071049;28;20434;-63
2021/05/19 00:25:00;;;;;;;2.38;1.17;;;;;;;9.63;100.00;101906.81;5071033;28;20049;-64
2021/05/19 00:27:26;;;;;;;5.13;0.80;;;;;;;9.62;100.00;101905.13;5070896;28;20040;-63
2021/05/19 00:29:52;;;;;;;3.55;0.80;;;;;;;9.58;100.00;101915.63;5070953;28;20052;-63
2021/05/19 00:32:18;;;;;;;4.78;0.70;;;;;;;9.58;100.00;101914.78;5070623;28;20470;-63
2021/05/19 00:34:44;;;;;;;2.83;1.20;;;;;;;9.59;100.00;101916.47;5071019;28;20455;-63
2021/05/19 00:37:10;;;;;;;4.32;0.93;;;;;;;9.59;100.00;101913.75;5071030;28;20054;-63
2021/05/19 00:39:35;;;;;;;7.03;0.90;;;;;;;9.59;100.00;101911.03;5071212;28;20041;-63
2021/05/19 00:42:01;;;;;;;3.15;0.73;;;;;;;9.61;100.00;101908.91;5070764;28;20475;-63
2021/05/19 00:44:27;;;;;;;3.55;0.88;;;;;;;9.62;100.00;101910.59;5070518;28;20119;-63
2021/05/19 00:46:53;;;;;;;2.70;0.90;;;;;;;9.62;100.00;101910.59;5071426;28;20032;-63
2021/05/19 00:49:18;;;;;;;3.42;0.70;;;;;;;9.61;100.00;101915.22;5070805;28;20039;-63
2021/05/19 00:51:44;;;;;;;3.42;1.10;;;;;;;9.64;100.00;101919.41;5070995;28;20040;-63
2021/05/19 00:54:10;;;;;;;3.88;0.80;;;;;;;9.61;100.00;101920.66;5070795;28;20033;-63
2021/05/19 00:56:36;;;;;;;5.32;1.33;;;;;;;9.60;100.00;101912.69;5070713;28;20052;-63
2021/05/19 00:59:03;;;;;;;3.90;0.90;;;;;;;9.59;100.00;101916.47;5070701;28;20036;-63
2021/05/19 01:01:36;;;;;;;4.78;1.25;;;;;;;9.57;100.00;101913.13;5070482;28;20037;-63
2021/05/19 01:04:03;;;;;;;6.85;1.05;;;;;;;9.58;100.00;101914.78;5070435;28;20037;-63
2021/05/19 01:06:58;;;;;;;4.20;0.77;;;;;;;9.56;100.00;101916.91;5070657;28;20036;-63
2021/05/19 01:09:36;;;;;;;2.65;0.90;;;;;;;9.58;100.00;101914.78;5070470;28;20098;-63
2021/05/19 01:12:23;;;;;;;;;;;;;;;9.55;100.00;101920.69;5071065;28;20187;-63
2021/05/19 01:14:49;;;;;;;;;;;;;;;9.55;100.00;101921.50;5070841;28;19922;-63
2021/05/19 01:17:16;;;;;;;4.07;0.90;;;;;;;9.55;100.00;101915.22;5070614;28;19927;-64
2021/05/19 01:19:47;;;;;;;8.13;1.38;;;;;;;9.55;100.00;101924.25;5070399;28;20613;-63
2021/05/19 01:22:26;;;;;;;3.53;1.25;;;;;;;9.55;100.00;101923.41;5070477;28;20028;-63
2021/05/19 01:24:55;;;;;;;5.90;1.00;;;;;;;9.56;100.00;101922.34;5070314;28;20067;-63
2021/05/19 01:27:22;;;;;;;7.10;1.13;;;;;;;9.58;100.00;101931.16;5070698;28;20039;-63
2021/05/19 01:29:51;;;;;;;3.83;0.90;;;;;;;9.58;100.00;101925.72;5070369;28;20127;-63
2021/05/19 01:32:16;;;;;;;5.20;1.40;;;;;;;9.57;100.00;101938.50;5070169;28;20086;-63
2021/05/19 01:34:42;;;;;;;7.75;1.38;;;;;;;9.58;100.00;101944.81;5070113;28;20033;-63
2021/05/19 01:37:14;;;;;;;6.07;1.38;;;;;;;9.60;100.00;101945.44;5070260;28;20067;-63
2021/05/19 01:39:41;;;;;;;3.33;1.58;;;;;;;9.59;100.00;101938.28;5070321;28;20052;-63
2021/05/19 01:42:08;;;;;;;4.75;1.00;;;;;;;9.59;100.00;101927.38;5070343;28;20040;-63
2021/05/19 01:44:33;;;;;;;4.57;1.00;;;;;;;9.59;100.00;101932.84;5073657;28;20033;-63
2021/05/19 01:47:02;;;;;;;5.05;0.88;;;;;;;9.58;100.00;101925.72;5073986;28;20043;-63
2021/05/19 01:49:31;;;;;;;7.30;1.00;;;;;;;9.57;100.00;101932.22;5073855;28;20049;-63
2021/05/19 01:52:00;;;;;;;5.32;1.33;;;;;;;9.57;100.00;101937.66;5073837;28;20047;-63
2021/05/19 01:54:30;;;;;;;6.72;1.10;;;;;;;9.57;100.00;101934.94;5073802;28;20040;-63
2021/05/19 01:56:56;;;;;;;6.47;1.25;;;;;;;9.56;100.00;101927.81;5073821;28;20504;-63
2021/05/19 01:59:21;;;;;;;3.05;0.85;;;;;;;9.57;100.00;101940.41;5073781;28;20060;-63
2021/05/19 02:01:47;;;;;;;16.65;1.48;;;;;;;9.55;100.00;101931.59;5073694;28;20095;-63
2021/05/19 02:04:15;;;;;;;5.50;1.13;;;;;;;9.56;100.00;101933.25;5073589;28;20158;-63
2021/05/19 02:06:57;;;;;;;3.90;1.10;;;;;;;9.56;100.00;101936.00;5073658;28;20517;-63
2021/05/19 02:09:24;;;;;;;6.88;1.55;;;;;;;9.55;100.00;101926.13;5073516;28;20596;-63
2021/05/19 02:11:51;;;;;;;5.70;1.20;;;;;;;9.54;100.00;101929.88;5073289;28;20048;-62
2021/05/19 02:14:19;;;;;;;8.07;1.00;;;;;;;9.52;100.00;101926.53;5073379;28;20119;-63
2021/05/19 02:16:46;;;;;;;5.85;1.30;;;;;;;9.50;100.00;101923.16;5072481;28;20036;-63
2021/05/19 02:19:14;;;;;;;4.63;1.13;;;;;;;9.50;100.00;101914.97;5073436;28;20557;-63
2021/05/19 02:21:44;;;;;;;4.90;1.00;;;;;;;9.48;100.00;101925.28;5073256;28;20036;-63
2021/05/19 02:24:11;;;;;;;2.17;1.40;;;;;;;9.48;100.00;101925.28;5073162;28;20036;-63
2021/05/19 02:26:39;;;;;;;5.63;1.05;;;;;;;9.46;100.00;101932.81;5073223;28;20407;-63
2021/05/19 02:29:06;;;;;;;6.47;1.58;;;;;;;9.47;100.00;101934.50;5073182;28;20036;-63
2021/05/19 02:31:32;;;;;;;4.20;1.40;;;;;;;9.47;100.00;101935.34;5073387;28;20063;-63
2021/05/19 02:33:58;;;;;;;7.07;1.25;;;;;;;9.49;100.00;101943.31;5073082;28;20056;-63
2021/05/19 02:36:24;;;;;;;9.88;2.10;;;;;;;9.50;100.00;101947.72;5073070;28;20055;-63
2021/05/19 02:38:51;;;;;;;6.93;1.88;;;;;;;9.51;100.00;101954.84;5073501;28;20094;-63
2021/05/19 02:41:17;;;;;;;7.70;1.33;;;;;;;9.54;100.00;101951.69;5072925;28;20051;-63
2021/05/19 02:43:42;;;;;;;8.77;1.58;;;;;;;9.56;100.00;101952.34;5072770;28;20044;-63
2021/05/19 02:46:08;;;;;;;3.60;1.20;;;;;;;9.57;100.00;101959.50;5072832;28;20044;-63
2021/05/19 02:48:34;;;;;;;8.00;1.77;;;;;;;9.58;100.00;101964.72;5072744;28;20135;-63
2021/05/19 02:51:00;;;;;;;5.90;1.25;;;;;;;9.60;100.00;101967.25;5072738;28;20049;-63
2021/05/19 02:53:26;;;;;;;8.45;1.50;;;;;;;9.62;100.00;101970.59;5072950;28;20056;-63
2021/05/19 02:55:52;;;;;;;4.93;1.30;;;;;;;9.63;100.00;101975.84;5072732;28;20036;-63
2021/05/19 02:58:19;;;;;;;4.60;1.13;;;;;;;9.65;100.00;101978.38;5072590;28;20119;-62
2021/05/19 03:00:45;;;;;;;5.55;1.42;;;;;;;9.67;100.00;101974.38;5072427;28;20048;-63
2021/05/19 03:03:10;;;;;;;5.53;1.38;;;;;;;9.69;100.00;101987.81;5072467;28;20037;-63
2021/05/19 03:05:36;;;;;;;9.35;1.58;;;;;;;9.72;100.00;101981.09;5072360;28;20548;-63
2021/05/19 03:08:02;;;;;;;6.97;1.20;;;;;;;9.72;100.00;101979.22;5072593;28;20074;-63
2021/05/19 03:10:29;;;;;;;5.97;1.30;;;;;;;9.74;100.00;101988.03;5072395;28;20486;-63
2021/05/19 03:12:55;;;;;;;9.02;1.60;;;;;;;9.76;100.00;101988.66;5072379;28;20059;-63
2021/05/19 03:15:23;;;;;;;15.73;1.35;;;;;;;9.78;100.00;101992.03;5072286;28;20124;-63
2021/05/19 03:17:49;;;;;;;5.85;1.40;;;;;;;9.80;100.00;101989.94;5072156;28;20113;-63
2021/05/19 03:20:15;;;;;;;6.57;0.98;;;;;;;9.82;100.00;102004.19;5072065;28;20039;-64
2021/05/19 03:22:41;;;;;;;6.15;1.60;;;;;;;9.84;100.00;101993.91;5072008;28;20051;-63
2021/05/19 03:25:08;;;;;;;10.85;1.85;;;;;;;9.85;100.00;101995.59;5072417;28;20032;-63
2021/05/19 03:27:34;;;;;;;8.13;1.27;;;;;;;9.87;100.00;102001.66;5072081;28;20079;-63
2021/05/19 03:29:59;;;;;;;6.57;1.20;;;;;;;9.87;100.00;102001.66;5071949;28;20041;-64
2021/05/19 03:32:25;;;;;;;6.57;1.67;;;;;;;9.86;100.00;101994.53;5071988;28;20040;-64
2021/05/19 03:34:51;;;;;;;5.60;2.55;;;;;;;9.85;100.00;101987.41;5071784;28;20123;-63
2021/05/19 03:37:17;;;;;;;5.85;1.30;;;;;;;9.82;100.00;101996.00;5072277;28;20045;-64
2021/05/19 03:39:43;;;;;;;5.45;1.38;;;;;;;9.82;100.00;101993.28;5071684;28;20044;-63
2021/05/19 03:42:09;;;;;;;5.80;1.70;;;;;;;9.80;100.00;101998.13;5070397;28;20033;-64
2021/05/19 03:44:34;;;;;;;6.07;1.70;;;;;;;9.78;100.00;101997.47;5071603;28;20036;-63
2021/05/19 03:47:00;;;;;;;6.55;1.55;;;;;;;9.77;100.00;102006.72;5071719;28;20043;-63
2021/05/19 03:49:28;;;;;;;5.32;1.48;;;;;;;9.77;100.00;102006.72;5071655;28;20146;-64
2021/05/19 03:51:54;;;;;;;3.53;1.52;;;;;;;9.76;100.00;102002.31;5071620;28;20036;-63
2021/05/19 03:54:20;;;;;;;6.18;1.70;;;;;;;9.73;100.00;102008.19;5071401;28;20036;-63
2021/05/19 03:56:50;;;;;;;5.90;1.40;;;;;;;9.73;100.00;102008.19;5071481;28;20040;-63
2021/05/19 03:59:16;;;;;;;6.28;1.60;;;;;;;9.73;100.00;102027.28;5071414;28;20044;-63
2021/05/19 04:01:42;;;;;;;4.82;1.52;;;;;;;9.74;100.00;102019.94;5071339;28;20046;-63
2021/05/19 04:04:08;;;;;;;6.53;2.47;;;;;;;9.71;100.00;102015.72;5071382;28;20135;-63
2021/05/19 04:06:34;;;;;;;2.47;1.42;;;;;;;9.71;100.00;102029.34;5070933;28;20063;-63
2021/05/19 04:09:00;;;;;;;4.88;1.65;;;;;;;9.70;100.00;102032.28;5071156;28;20044;-63
2021/05/19 04:11:26;;;;;;;6.60;1.83;;;;;;;9.68;100.00;102035.22;5070996;28;20071;-63
2021/05/19 04:13:53;;;;;;;5.68;2.13;;;;;;;9.66;100.00;102037.34;5071293;28;20060;-63
2021/05/19 04:16:18;;;;;;;6.03;1.70;;;;;;;9.64;100.00;102039.44;5071374;28;20463;-64
2021/05/19 04:18:44;;;;;;;7.28;1.90;;;;;;;9.63;100.00;102037.75;5071235;28;20040;-63
2021/05/19 04:21:10;;;;;;;5.85;1.60;;;;;;;9.61;100.00;102037.97;5071027;28;20033;-63
2021/05/19 04:23:36;;;;;;;8.27;1.98;;;;;;;9.60;100.00;102043.63;5070950;28;20363;-63
2021/05/19 04:26:02;;;;;;;5.28;2.05;;;;;;;9.59;100.00;102040.06;5071147;28;20036;-63
2021/05/19 04:28:27;;;;;;;4.00;1.77;;;;;;;9.58;100.00;102045.72;5070879;28;20040;-63
2021/05/19 04:30:53;;;;;;;8.80;2.50;;;;;;;9.56;100.00;102047.81;5069557;28;20040;-63
2021/05/19 04:33:21;;;;;;;2.80;1.63;;;;;;;9.56;100.00;102053.28;5071005;28;20059;-63
2021/05/19 04:35:48;;;;;;;2.63;1.50;;;;;;;9.53;100.00;102053.66;5071033;28;20094;-64
2021/05/19 04:38:14;;;;;;;3.70;2.10;;;;;;;9.52;100.00;102057.44;5070890;28;20041;-63
2021/05/19 04:40:40;;;;;;;4.78;1.92;;;;;;;9.52;100.00;102068.34;5070732;28;20062;-63
2021/05/19 04:43:09;;;;;;;5.55;2.13;;;;;;;9.50;100.00;102059.53;5070691;28;20032;-63
2021/05/19 04:45:36;;;;;;;7.65;2.17;;;;;;;9.48;100.00;102067.91;5070736;28;20071;-63
2021/05/19 04:48:02;;;;;;;5.13;1.77;;;;;;;9.48;100.00;102069.81;5070957;28;20033;-63
2021/05/19 04:50:28;;;;;;;3.40;1.70;;;;;;;9.47;100.00;102068.13;5070723;28;20040;-63
2021/05/19 04:52:53;;;;;;;13.30;2.45;;;;;;;9.47;100.00;102077.16;5070606;28;20375;-63
2021/05/19 04:55:19;;;;;;;4.13;1.65;;;;;;;9.46;100.00;102077.34;5069705;28;20029;-64
2021/05/19 04:57:45;;;;;;;3.90;1.45;;;;;;;9.45;100.00;102078.41;5070820;28;20037;-62
2021/05/19 05:00:11;;;;;;;3.95;1.67;;;;;;;9.44;100.00;102087.63;5070549;28;20436;-64
2021/05/19 05:02:38;;;;;;;6.07;2.13;;;;;;;9.43;100.00;102091.41;5070701;28;20060;-63
2021/05/19 05:05:09;;;;;;;6.93;2.47;;;;;;;9.42;100.00;102089.72;5070461;28;20033;-63
2021/05/19 05:07:35;;;;;;;5.80;2.05;;;;;;;9.43;100.00;102088.69;5070598;28;20040;-63
2021/05/19 05:10:04;;;;;;;7.00;2.33;;;;;;;9.41;100.00;102088.03;5070519;28;20071;-63
2021/05/19 05:12:30;;;;;;;5.57;2.00;;;;;;;9.42;100.00;102100.63;5070381;28;20047;-63
2021/05/19 05:14:55;;;;;;;5.10;2.28;;;;;;;9.40;100.00;102098.13;5070520;28;20035;-63
2021/05/19 05:17:22;;;;;;;6.82;2.05;;;;;;;9.40;100.00;102100.00;5070588;28;20040;-63
2021/05/19 05:19:48;;;;;;;4.60;2.60;;;;;;;9.39;100.00;102101.88;5074544;28;20037;-64
2021/05/19 05:22:13;;;;;;;9.88;2.10;;;;;;;9.39;100.00;102106.50;5074397;28;20037;-63
2021/05/19 05:24:39;;;;;;;9.30;3.50;;;;;;;9.38;100.00;102110.28;5074225;28;20487;-63
2021/05/19 05:27:05;;;;;;;9.27;2.03;;;;;;;9.38;100.00;102115.72;5074665;28;20066;-64
2021/05/19 05:29:31;;;;;;;9.15;2.35;;;;;;;9.38;100.00;102115.72;5074685;28;20032;-63
2021/05/19 05:31:57;;;;;;;12.25;2.95;;;;;;;9.38;100.00;102126.63;5074260;28;20113;-63
2021/05/19 05:34:23;;;;;;;7.18;2.45;;;;;;;9.39;100.00;102122.88;5074156;28;20028;-63
2021/05/19 05:36:50;;;;;;;7.78;2.53;;;;;;;9.39;100.00;102129.16;5074188;28;20131;-63
2021/05/19 05:39:16;;;;;;;11.20;2.15;;;;;;;9.40;100.00;102124.53;5074128;28;20040;-63
2021/05/19 05:41:42;;;;;;;12.82;2.63;;;;;;;9.41;100.00;102127.06;5074098;28;20037;-63
2021/05/19 05:44:07;;;;;;;8.73;2.03;;;;;;;9.43;100.00;102135.03;5073857;28;20478;-63
2021/05/19 05:46:33;;;;;;;6.30;2.45;;;;;;;9.47;100.00;102147.22;5074016;28;20040;-63
2021/05/19 05:48:59;;;;;;;2.92;2.33;;;;;;;9.49;100.00;102153.31;5074056;28;20163;-63
2021/05/19 05:51:26;;;;;;;8.30;2.22;;;;;;;9.53;100.00;102151.84;5073871;28;20048;-63
2021/05/19 05:53:52;;;;;;;10.18;2.55;;;;;;;9.55;100.00;102155.25;5074111;28;20526;-63
2021/05/19 05:56:18;;;;;;;8.15;2.20;;;;;;;9.57;100.00;102154.00;5073741;28;20036;-63
2021/05/19 05:58:44;;;;;;;8.32;2.65;;;;;;;9.61;100.00;102162.59;5073918;28;20424;-63
2021/05/19 06:01:10;;;;;;;8.02;2.13;;;;;;;9.65;100.00;102161.16;5073528;28;20044;-63
2021/05/19 06:03:36;;;;;;;9.40;2.65;;;;;;;9.68;100.00;102166.19;5073660;28;20039;-64
2021/05/19 06:06:03;;;;;;;10.00;2.42;;;;;;;9.72;100.00;102172.94;5073692;28;20049;-63
2021/05/19 06:08:29;;;;;;;5.50;1.90;;;;;;;9.77;100.00;102175.88;5073826;28;20036;-63
2021/05/19 06:10:55;;;;;;;10.10;1.90;;;;;;;9.80;100.00;102180.94;5073464;28;20036;-63
2021/05/19 06:13:21;;;;;;;6.85;1.77;;;;;;;9.83;100.00;102180.53;5071878;28;20078;-63
2021/05/19 06:15:48;;;;;;;7.40;1.50;;;;;;;9.88;100.00;102177.16;5073385;28;20052;-63
2021/05/19 06:18:14;;;;;;;10.38;2.65;;;;;;;9.89;100.00;102177.00;5073462;28;20060;-64
2021/05/19 06:20:39;;;;;;;8.00;2.72;;;;;;;9.95;100.00;102184.34;5073254;28;20044;-63
2021/05/19 06:23:05;;;;;;;11.68;3.60;;;;;;;10.11;100.00;102194.06;5073149;28;20044;-63
2021/05/19 06:25:31;;;;;;;11.27;2.08;;;;;;;10.19;100.00;102190.28;5073225;28;20079;-63
2021/05/19 06:27:56;;;;;;;7.05;1.98;;;;;;;10.29;100.00;102196.22;5073133;28;20047;-63
2021/05/19 06:30:22;;;;;;;8.93;2.00;;;;;;;10.36;100.00;102197.06;5072743;28;20033;-63
2021/05/19 06:32:48;;;;;;;5.78;1.90;;;;;;;10.39;100.00;102191.19;5072918;28;20090;-64
2021/05/19 06:35:13;;;;;;;8.35;1.85;;;;;;;10.44;100.00;102194.16;5073003;28;20452;-63
2021/05/19 06:37:39;;;;;;;8.15;1.70;;;;;;;10.50;100.00;102197.94;5073005;28;20024;-63
2021/05/19 06:40:06;;;;;;;11.27;2.10;;;;;;;10.57;100.00;102194.16;5072898;28;20036;-63
2021/05/19 06:42:31;;;;;;;10.25;1.75;;;;;;;10.64;100.00;102185.97;5072830;28;20028;-64
2021/05/19 06:44:57;;;;;;;8.50;1.42;;;;;;;10.61;100.00;102193.75;5072670;28;20483;-64
2021/05/19 06:47:23;;;;;;;10.93;2.28;;;;;;;10.64;100.00;102190.59;5072613;28;20044;-63
2021/05/19 06:49:52;;;;;;;8.25;1.65;;;;;;;10.78;100.00;102190.41;5072615;28;20048;-64
2021/05/19 06:52:17;;;;;;;8.73;2.42;;;;;;;10.87;100.00;102193.75;5072659;28;20032;-63
2021/05/19 06:54:43;;;;;;;16.50;1.77;;;;;;;10.86;100.00;102197.53;5072616;28;20063;-63
2021/05/19 06:57:09;;;;;;;8.48;1.45;;;;;;;10.91;100.00;102202.34;5072734;28;20052;-63
2021/05/19 06:59:34;;;;;;;7.88;1.52;;;;;;;11.00;100.00;102209.31;5072625;28;20048;-64
2021/05/19 07:02:00;;;;;;;9.10;1.88;;;;;;;11.04;100.00;102205.09;5072516;28;20033;-63
2021/05/19 07:04:26;;;;;;;7.13;1.90;;;;;;;11.10;100.00;102207.78;5072482;28;20045;-63
2021/05/19 07:06:51;;;;;;;10.90;2.17;;;;;;;11.16;100.00;102209.69;5072417;28;20040;-63
2021/05/19 07:09:18;;;;;;;5.50;1.35;;;;;;;11.27;100.00;102227.34;5072345;28;20043;-63
2021/05/19 07:11:44;;;;;;;7.15;1.75;;;;;;;11.32;100.00;102229.47;5072138;28;20045;-63
2021/05/19 07:14:15;;;;;;;6.13;1.25;;;;;;;11.40;100.00;102227.31;5072344;28;20039;-63
2021/05/19 07:16:49;;;;;;;7.43;1.70;;;;;;;11.47;100.00;102225.44;5072264;28;20548;-63
2021/05/19 07:19:15;;;;;;;9.73;2.30;;;;;;;11.56;100.00;102236.97;5072289;28;20118;-63
2021/05/19 07:21:41;;;;;;;14.93;2.00;;;;;;;11.66;100.00;102242.84;5072225;28;20076;-63
2021/05/19 07:24:08;;;;;;;7.00;2.25;;;;;;;11.81;100.00;102230.84;5072041;28;20040;-63
2021/05/19 07:26:33;;;;;;;9.10;2.05;;;;;;;11.92;100.00;102230.13;5072047;28;20550;-63
2021/05/19 07:29:00;;;;;;;5.60;1.27;;;;;;;11.96;100.00;102231.38;5072239;28;20059;-63
2021/05/19 07:31:25;;;;;;;6.22;1.38;;;;;;;12.10;100.00;102233.00;5071853;28;20466;-63
2021/05/19 07:33:51;;;;;;;9.45;1.50;;;;;;;12.11;100.00;102234.69;5071921;28;20401;-63
2021/05/19 07:36:17;;;;;;;8.48;1.75;;;;;;;12.25;100.00;102236.28;5071981;28;20051;-63
2021/05/19 07:38:43;;;;;;;8.48;2.08;;;;;;;12.40;100.00;102246.13;5071903;28;20051;-63
2021/05/19 07:41:08;;;;;;;5.40;1.38;;;;;;;12.51;100.00;102242.69;5070675;28;20470;-63
2021/05/19 07:43:34;;;;;;;5.47;1.23;;;;;;;12.47;100.00;102238.69;5069141;28;20044;-63
2021/05/19 07:46:00;;;;;;;5.78;1.10;;;;;;;12.54;100.00;102242.25;5071215;28;20048;-63
2021/05/19 07:48:26;;;;;;;6.25;0.90;;;;;;;12.44;100.00;102236.41;5071404;28;20028;-64
2021/05/19 07:50:51;;;;;;;4.53;1.00;;;;;;;12.47;100.00;102249.66;5070515;28;20048;-65
2021/05/19 07:53:17;;;;;;;10.25;1.00;;;;;;;12.50;100.00;102238.28;5071110;28;20040;-66
2021/05/19 07:55:59;;;;;;;5.82;1.20;;;;;;;12.58;100.00;102243.47;5070983;28;20375;-65
2021/05/19 07:58:32;;;;;;;5.75;1.13;;;;;;;12.64;100.00;102240.69;5071161;28;20035;-64
2021/05/19 08:03:51;;;;;;;4.55;1.10;;;;;;;12.91;100.00;102240.50;5067788;28;20067;-63
2021/05/19 08:06:18;;;;;;;6.13;1.30;;;;;;;13.01;100.00;102237.22;5070803;28;20155;-63
2021/05/19 08:08:43;;;;;;;3.85;1.02;;;;;;;13.10;100.00;102230.41;5070566;28;20103;-64
2021/05/19 08:11:09;;;;;;;4.53;1.13;;;;;;;13.24;100.00;102221.03;5069517;28;20036;-64
2021/05/19 08:13:39;;;;;;;4.18;0.90;;;;;;;13.37;100.00;102220.06;5071184;28;20044;-63
2021/05/19 08:16:09;;;;;;;4.63;1.00;;;;;;;13.42;100.00;102221.03;5068794;28;20107;-64
2021/05/19 08:18:35;;;;;;;4.13;0.90;;;;;;;13.53;100.00;102223.00;5070778;28;20037;-65
2021/05/19 08:21:01;;;;;;;4.10;0.90;;;;;;;13.46;100.00;102216.78;5070690;28;20032;-64
2021/05/19 08:23:27;;;;;;;2.22;0.95;;;;;;;13.55;100.00;102231.88;5070743;28;20301;-65
2021/05/19 08:25:54;;;;;;;8.07;1.10;;;;;;;13.43;100.00;102239.19;5070255;28;20064;-64
2021/05/19 08:28:19;;;;;;;3.00;0.52;;;;;;;13.48;100.00;102233.84;5070186;28;20041;-66
2021/05/19 08:30:45;;;;;;;4.70;1.30;;;;;;;13.51;100.00;102219.66;5070351;28;20567;-65
2021/05/19 08:33:11;;;;;;;5.40;0.80;;;;;;;13.63;100.00;102240.88;5070539;28;20060;-64
2021/05/19 08:35:37;;;;;;;1.75;1.08;;;;;;;13.76;100.00;102232.50;5070242;28;20041;-64
2021/05/19 08:38:02;;;;;;;4.40;1.13;;;;;;;13.87;100.00;102234.44;5069889;28;20044;-64
2021/05/19 08:40:28;;;;;;;5.45;1.50;;;;;;;13.94;100.00;102239.88;5069570;28;20482;-63
2021/05/19 08:42:55;;;;;;;6.82;1.45;;;;;;;14.00;100.00;102250.78;5070067;28;20051;-64
2021/05/19 08:45:21;;;;;;;2.97;0.80;;;;;;;13.97;100.00;102256.72;5069914;28;20033;-65
2021/05/19 08:47:48;;;;;;;4.47;1.00;;;;;;;14.10;100.00;102262.06;5069938;28;20165;-65
2021/05/19 08:50:14;;;;;;;3.70;0.93;;;;;;;13.88;100.00;102261.72;5070537;28;20058;-64
2021/05/19 08:52:42;;;;;;;3.20;0.90;;;;;;;14.08;100.00;102272.47;5070016;28;20121;-63
2021/05/19 08:55:14;;;;;;;4.53;1.00;;;;;;;14.23;100.00;102269.31;5069882;28;20052;-66
2021/05/19 08:57:41;;;;;;;2.58;0.65;;;;;;;14.14;100.00;102268.78;5070048;28;20036;-63
2021/05/19 09:00:09;;;;;;;7.18;1.15;;;;;;;14.32;100.00;102275.31;5069877;28;20044;-63
2021/05/19 09:02:35;;;;;;;6.43;1.02;;;;;;;14.41;100.00;102279.44;5070135;28;20045;-64
2021/05/19 09:05:01;;;;;;;2.25;1.23;;;;;;;14.39;100.00;102287.88;5069832;28;20048;-65
2021/05/19 09:07:27;;;;;;;7.70;0.98;;;;;;;14.29;100.00;102297.78;5070307;28;20040;-64
2021/05/19 09:09:52;;;;;;;4.10;1.17;;;;;;;14.22;100.00;102291.50;5069868;28;20040;-65
2021/05/19 09:12:19;;;;;;;5.13;1.38;;;;;;;14.38;100.00;102296.34;5069975;28;20071;-64
2021/05/19 09:14:51;;;;;;;4.47;0.70;;;;;;;14.23;100.00;102294.03;5069849;28;20071;-65
2021/05/19 09:17:17;;;;;;;9.73;1.02;;;;;;;14.21;100.00;102295.31;5069843;28;20082;-65
2021/05/19 09:19:43;;;;;;;4.63;0.40;;;;;;;14.21;100.00;102303.56;5069428;28;20127;-64
2021/05/19 09:22:19;;;;;;;4.80;0.75;;;;;;;14.45;100.00;102310.91;5070220;28;20183;-64
2021/05/19 09:24:45;;;;;;;2.83;0.60;;;;;;;14.69;100.00;102309.91;5070236;28;20136;-65
2021/05/19 09:27:10;;;;;;;2.05;0.40;;;;;;;15.00;100.00;102310.72;5070300;28;20078;-64
2021/05/19 09:29:39;;;;;;;4.50;0.90;;;;;;;15.19;100.00;102304.06;5069334;28;20128;-65
2021/05/19 09:32:08;;;;;;;3.83;0.73;;;;;;;15.16;100.00;102317.47;5049787;28;20039;-65
2021/05/19 09:34:39;;;;;;;4.32;0.88;;;;;;;15.01;100.00;102317.91;5049772;28;20036;-65
2021/05/19 09:37:27;;;;;;;3.45;1.25;;;;;;;15.23;100.00;102324.53;5050276;28;20037;-65
2021/05/19 09:39:57;;;;;;;2.05;0.70;;;;;;;15.09;100.00;102312.88;5049781;28;20041;-64
2021/05/19 09:42:35;;;;;;;6.75;0.77;;;;;;;14.96;100.00;102321.38;5068431;28;20692;-63
2021/05/19 09:45:18;;;;;;;5.65;0.80;;;;;;;14.99;100.00;102325.56;5069801;28;20482;-64
2021/05/19 09:47:49;;;;;;;4.47;0.50;;;;;;;15.14;100.00;102327.88;5101879;28;20053;-64
2021/05/19 09:50:20;;;;;;;2.72;0.50;;;;;;;15.35;100.00;102327.31;5069911;28;20033;-64
2021/05/19 09:53:08;;;;;;;3.65;0.65;;;;;;;15.59;100.00;102325.41;5069976;28;20044;-64
2021/05/19 09:55:35;;;;;;;4.07;0.80;;;;;;;15.61;100.00;102332.38;5069966;28;20032;-63
2021/05/19 09:58:01;;;;;;;0.98;0.50;;;;;;;15.48;100.00;102340.00;5070262;28;20123;-64
2021/05/19 10:00:29;;;;;;;4.95;0.60;;;;;;;15.52;100.00;102332.94;5069812;28;20448;-65
2021/05/19 10:02:56;;;;;;;2.30;0.70;;;;;;;15.66;100.00;102334.41;5069728;28;20045;-64
2021/05/19 10:07:48;;;;;;;1.98;0.70;;;;;;;15.82;100.00;102325.44;5073514;28;20043;-64
2021/05/19 10:10:14;;;;;;;3.00;0.70;;;;;;;15.89;100.00;102319.78;5073403;28;20076;-64
2021/05/19 10:12:41;;;;;;;4.30;0.63;;;;;;;16.00;100.00;102342.91;5073052;28;20063;-65
2021/05/19 10:15:18;;;;;;;5.00;0.70;;;;;;;16.04;100.00;102344.09;5073316;28;20137;-64
2021/05/19 10:17:50;;;;;;;7.13;1.90;;;;;;;15.91;100.00;102351.53;5073288;28;20028;-64
2021/05/19 10:20:19;;;;;;;4.70;1.10;;;;;;;15.71;100.00;102355.72;5072232;28;20032;-64
2021/05/19 10:22:48;;;;;;;4.43;0.93;;;;;;;15.85;100.00;102363.53;5072846;28;20029;-64
2021/05/19 10:25:41;;;;;;;3.88;0.70;;;;;;;16.05;100.00;102357.63;5072304;28;20037;-64
2021/05/19 10:28:15;;;;;;;2.05;0.70;;;;;;;16.20;100.00;102351.59;5069987;28;20060;-65
2021/05/19 10:30:50;;;;;;;1.42;0.57;;;;;;;16.42;100.00;102347.09;5072511;28;20033;-64
2021/05/19 10:33:39;;;;;;;5.10;0.60;;;;;;;16.12;100.00;102332.69;5072651;28;20024;-65
2021/05/19 10:36:23;;;;;;;1.80;0.45;;;;;;;15.94;100.00;102351.03;5072647;28;20027;-65
2021/05/19 10:39:10;;;;;;;3.33;1.30;;;;;;;16.31;100.00;102342.47;5072094;28;20046;-65
2021/05/19 10:41:37;;;;;;;1.63;0.47;;;;;;;16.54;100.00;102350.69;5072551;28;20039;-65
2021/05/19 10:44:07;;;;;;;4.22;0.80;;;;;;;16.86;100.00;102342.78;5072281;28;20038;-64
2021/05/19 10:46:59;;;;;;;2.67;0.90;;;;;;;17.00;100.00;102347.97;5072587;28;20483;-65
2021/05/19 10:49:46;;;;;;;3.65;0.73;;;;;;;16.81;100.00;102350.09;5072468;28;20127;-65
2021/05/19 10:58:02;;;;;;;2.85;0.50;;;;;;;16.82;100.00;102340.75;5072988;28;20036;-64
2021/05/19 11:00:30;;;;;;;2.20;0.65;;;;;;;16.87;100.00;102338.09;5072829;28;20052;-65
2021/05/19 11:05:29;;;;;;;6.53;0.50;;;;;;;17.27;100.00;102337.13;5072442;28;20102;-64
2021/05/19 11:08:07;;;;;;;2.85;0.50;;;;;;;17.42;99.31;102329.09;5072634;28;20047;-65
2021/05/19 11:10:48;;;;;;;3.25;0.30;;;;;;;17.26;91.74;102340.97;5072290;28;20024;-64
2021/05/19 11:13:16;;;;;;;4.25;0.45;;;;;;;17.48;92.38;102333.59;5072104;28;20052;-65
2021/05/19 11:20:54;;;;;;;1.45;0.40;;;;;;;17.67;85.59;102346.06;5072278;28;20119;-64
2021/05/19 11:23:20;;;;;;;3.17;0.70;;;;;;;17.89;92.09;102339.81;5072252;28;20094;-65
2021/05/19 11:25:46;;;;;;;2.97;0.50;;;;;;;17.95;82.83;102349.81;5072309;28;20387;-64
2021/05/19 11:28:24;;;;;;;2.03;0.50;;;;;;;18.13;82.64;102363.34;5072088;28;20045;-65
2021/05/19 11:30:50;;;;;;;1.98;0.50;;;;;;;17.89;88.42;102364.69;5072141;28;20036;-63
2021/05/19 11:33:20;;;;;;;3.00;0.60;;;;;;;17.34;94.46;102365.41;5072017;28;20043;-64
2021/05/19 11:35:48;;;;;;;2.05;0.40;;;;;;;17.07;100.00;102355.03;5072116;28;20058;-64
2021/05/19 11:38:16;;;;;;;2.05;0.55;;;;;;;16.58;99.46;102360.13;5072105;28;20090;-64
2021/05/19 11:40:49;;;;;;;1.67;0.50;;;;;;;16.90;97.97;102365.19;5071885;28;20482;-65
2021/05/19 11:43:17;;;;;;;1.20;0.52;;;;;;;17.25;90.63;102366.94;5071879;28;20039;-64
2021/05/19 11:45:45;;;;;;;3.28;0.60;;;;;;;17.11;83.49;102367.25;5070628;28;20037;-62